aviador You're here:

KTBN Decoded Metar

FORT LEONARDWOOD in MO, USA
Report Time2017-12-11 08:56:00
UTC Time2017-12-11 09:12:05
Flight Rules vfr VFR
Wind210° at 05 kt
W.Decomp.*RWY 14: 2.0 kt HW 4.6 kt RCW
W.Rank210° ranks 15
Current wind is below 210° avg. (5.3)
Visibility9999 m
Phenomena:N/A
Clouds:N/A
Expected CloudBase > 2,800 ft AGL from Temp-Dew spread
CeilingNone
Temp02°C (ISA -11)
Dew Point-5°C (60% RH)
AAT-2.4°C
QNH1019 hPa
Density Alt-282 ft
Elevation1,158 ft
Report Wrong Elevation
Raw Report
KTBN 110856Z AUTO 21005KT 10SM CLR 02/M05 A3010 RMK AO2 SLP199
T00221052 55010=

Extra information for KTBN:More info

Metar Taf Metar & Taf Last 4 Metars F.Rules Stats Wind Profile Meteogram Temp Stats Airport Information Weather charts Add Link Nearby VenuesMetar ALERT Operation Metar Decoded Social comments

AIRNAV info for KTBN